Time;durP1;ratioP1;P1;durP2;ratioP2;P2;SDS_P1;SDS_P2;PMS_P1;PMS_P2;Temp;Humidity;BMP_temperature;BMP_pressure;BME280_temperature;BME280_humidity;BME280_pressure;Samples;Min_cycle;Max_cycle;Signal;HPM_P1;HPM_P2
2020/12/19 00:02:06;;;;;;;4.20;2.75;;;9.00;99.90;;;;;;5075754;28;20493;-62
2020/12/19 00:04:33;;;;;;;5.07;3.28;;;9.00;99.90;;;;;;5073991;28;20569;-62
2020/12/19 00:07:00;;;;;;;4.88;3.22;;;9.00;99.90;;;;;;5064344;28;20063;-62
2020/12/19 00:09:26;;;;;;;6.75;3.50;;;9.00;99.90;;;;;;5069545;28;20053;-62
2020/12/19 00:11:53;;;;;;;4.90;3.30;;;9.00;99.90;;;;;;5059329;28;20052;-62
2020/12/19 00:14:20;;;;;;;9.30;3.53;;;8.90;99.90;;;;;;5056837;28;20456;-62
2020/12/19 00:16:47;;;;;;;5.35;3.45;;;9.00;99.90;;;;;;5067540;28;20086;-62
2020/12/19 00:19:13;;;;;;;4.03;2.80;;;9.00;99.90;;;;;;5074888;28;20413;-62
2020/12/19 00:21:40;;;;;;;5.20;3.58;;;9.00;99.90;;;;;;5075430;28;20158;-62
2020/12/19 00:24:07;;;;;;;5.22;3.47;;;9.00;99.90;;;;;;5056694;28;20486;-62
2020/12/19 00:26:34;;;;;;;4.85;3.20;;;8.90;99.90;;;;;;5055367;28;20418;-62
2020/12/19 00:29:01;;;;;;;6.13;3.53;;;9.00;99.90;;;;;;5062111;28;20510;-62
2020/12/19 00:31:28;;;;;;;5.38;2.83;;;8.90;99.90;;;;;;5066449;28;20056;-61
2020/12/19 00:33:55;;;;;;;4.05;2.80;;;9.00;99.90;;;;;;5065222;28;20135;-61
2020/12/19 00:36:25;;;;;;;6.50;3.55;;;9.00;99.90;;;;;;5066946;28;20048;-62
2020/12/19 00:38:52;;;;;;;5.05;3.13;;;9.00;99.90;;;;;;5066294;28;20048;-62
2020/12/19 00:41:20;;;;;;;4.82;3.35;;;9.00;99.90;;;;;;5064362;28;20206;-62
2020/12/19 00:43:46;;;;;;;4.20;3.00;;;9.00;99.90;;;;;;5065496;28;20132;-62
2020/12/19 00:46:14;;;;;;;3.58;2.55;;;9.10;99.90;;;;;;5065963;28;20129;-62
2020/12/19 00:48:42;;;;;;;4.25;2.67;;;9.10;99.90;;;;;;5065838;28;20056;-62
2020/12/19 00:51:12;;;;;;;4.53;2.97;;;9.20;99.90;;;;;;5065959;28;20055;-62
2020/12/19 00:53:40;;;;;;;4.25;3.22;;;9.10;99.90;;;;;;5066638;28;20041;-62
2020/12/19 00:56:06;;;;;;;4.20;2.80;;;9.20;99.90;;;;;;5066276;28;20476;-62
2020/12/19 00:58:33;;;;;;;5.32;2.70;;;9.10;99.90;;;;;;5066768;28;20110;-62
2020/12/19 01:00:59;;;;;;;4.18;2.80;;;9.10;99.90;;;;;;5065362;28;20481;-62
2020/12/19 01:03:26;;;;;;;3.75;2.85;;;9.10;99.90;;;;;;5065124;28;20575;-62
2020/12/19 01:05:53;;;;;;;5.60;3.42;;;9.00;99.90;;;;;;5065307;28;20432;-62
2020/12/19 01:08:20;;;;;;;5.38;3.50;;;9.00;99.90;;;;;;5065565;28;20497;-62
2020/12/19 01:10:46;;;;;;;5.65;3.33;;;8.90;99.90;;;;;;5066393;28;20505;-62
2020/12/19 01:13:16;;;;;;;4.43;3.08;;;8.80;99.90;;;;;;5064049;28;20045;-62
2020/12/19 01:15:43;;;;;;;4.82;3.10;;;8.90;99.90;;;;;;5066183;28;20048;-62
2020/12/19 01:18:09;;;;;;;5.00;3.67;;;8.90;99.90;;;;;;5065406;28;20072;-62
2020/12/19 01:20:36;;;;;;;6.20;4.05;;;8.80;99.90;;;;;;5065068;28;20053;-62
2020/12/19 01:23:05;;;;;;;5.72;4.30;;;8.70;99.90;;;;;;5064576;28;20084;-62
2020/12/19 01:25:32;;;;;;;;;;;8.50;99.90;;;;;;5065822;28;20052;-62
2020/12/19 01:27:58;;;;;;;4.70;3.20;;;8.60;99.90;;;;;;5065144;28;19973;-62
2020/12/19 01:30:25;;;;;;;5.88;3.45;;;8.70;99.90;;;;;;5066417;28;20444;-62
2020/12/19 01:32:51;;;;;;;6.90;3.92;;;8.90;99.90;;;;;;5064220;28;20194;-62
2020/12/19 01:35:18;;;;;;;5.35;3.60;;;9.10;99.90;;;;;;5064480;28;20048;-62
2020/12/19 01:37:45;;;;;;;4.50;3.38;;;9.10;99.90;;;;;;5065896;28;20040;-62
2020/12/19 01:40:12;;;;;;;6.40;4.00;;;9.20;99.90;;;;;;5065289;28;20068;-62
2020/12/19 01:42:39;;;;;;;5.78;4.18;;;9.20;99.90;;;;;;5068757;28;20056;-62
2020/12/19 01:45:05;;;;;;;7.03;4.45;;;9.20;99.90;;;;;;5053655;28;20489;-62
2020/12/19 01:47:34;;;;;;;5.25;4.07;;;9.30;99.90;;;;;;5057371;28;20500;-62
2020/12/19 01:50:02;;;;;;;5.68;4.20;;;9.30;99.90;;;;;;5073849;28;20123;-62
2020/12/19 01:52:30;;;;;;;6.57;4.22;;;9.30;99.90;;;;;;5073625;28;20057;-62
2020/12/19 01:54:58;;;;;;;6.00;4.18;;;9.40;99.90;;;;;;5073715;28;20056;-62
2020/12/19 01:57:29;;;;;;;6.85;4.30;;;9.40;99.90;;;;;;5073244;28;20087;-62
2020/12/19 01:59:56;;;;;;;6.13;4.30;;;9.30;99.90;;;;;;5053117;28;20060;-62
2020/12/19 02:02:24;;;;;;;6.10;4.30;;;9.30;99.90;;;;;;5053405;28;20379;-62
2020/12/19 02:04:51;;;;;;;6.57;4.75;;;9.30;99.90;;;;;;5053651;28;20538;-62
2020/12/19 02:07:18;;;;;;;7.40;5.53;;;9.40;99.90;;;;;;5053349;28;20085;-62
2020/12/19 02:09:45;;;;;;;5.97;3.33;;;9.30;99.90;;;;;;5053316;28;20056;-62
2020/12/19 02:12:12;;;;;;;7.43;5.03;;;9.20;99.90;;;;;;5053988;28;20088;-62
2020/12/19 02:14:40;;;;;;;9.55;6.07;;;9.20;99.90;;;;;;5053453;28;20140;-62
2020/12/19 02:17:07;;;;;;;9.43;5.95;;;9.20;99.90;;;;;;5053632;28;20049;-62
2020/12/19 02:19:36;;;;;;;9.88;5.75;;;9.20;99.90;;;;;;5053219;28;20094;-62
2020/12/19 02:22:04;;;;;;;10.55;6.43;;;9.20;99.90;;;;;;5053120;28;20084;-62
2020/12/19 02:24:31;;;;;;;7.20;5.50;;;9.20;99.90;;;;;;5053072;28;20052;-62
2020/12/19 02:26:59;;;;;;;6.43;5.45;;;9.20;99.90;;;;;;5053451;28;20092;-62
2020/12/19 02:29:27;;;;;;;8.32;5.18;;;9.20;99.90;;;;;;5052957;28;20052;-62
2020/12/19 02:31:55;;;;;;;6.32;4.55;;;9.10;99.90;;;;;;5053045;28;20084;-62
2020/12/19 02:34:22;;;;;;;8.30;5.95;;;9.10;99.90;;;;;;5053519;28;20059;-62
2020/12/19 02:36:49;;;;;;;7.75;6.85;;;9.20;99.90;;;;;;5053326;28;20049;-62
2020/12/19 02:39:15;;;;;;;9.80;5.45;;;9.20;99.90;;;;;;5052866;28;20052;-62
2020/12/19 02:41:44;;;;;;;9.43;6.18;;;9.10;99.90;;;;;;5053000;28;20089;-62
2020/12/19 02:44:14;;;;;;;7.77;5.33;;;9.10;99.90;;;;;;5053412;28;20055;-62
2020/12/19 02:46:41;;;;;;;8.80;6.03;;;9.10;99.90;;;;;;5054516;28;20474;-62
2020/12/19 02:49:08;;;;;;;9.95;6.72;;;9.20;99.90;;;;;;5069453;28;20091;-62
2020/12/19 02:51:35;;;;;;;7.15;5.78;;;9.10;99.90;;;;;;5072692;28;20459;-62
2020/12/19 02:54:02;;;;;;;8.57;6.45;;;9.20;99.90;;;;;;5072946;28;20079;-62
2020/12/19 02:56:28;;;;;;;8.95;6.38;;;9.20;99.90;;;;;;5072956;28;20481;-62
2020/12/19 02:58:56;;;;;;;9.32;6.32;;;9.20;99.90;;;;;;5072595;28;20090;-62
2020/12/19 03:01:27;;;;;;;7.75;6.30;;;9.20;99.90;;;;;;5070004;28;20190;-62
2020/12/19 03:03:53;;;;;;;7.72;6.38;;;9.20;99.90;;;;;;5052680;28;20489;-62
2020/12/19 03:06:21;;;;;;;8.15;5.93;;;9.10;99.90;;;;;;5052744;28;20060;-62
2020/12/19 03:08:50;;;;;;;7.10;5.90;;;9.20;99.90;;;;;;5052646;28;20048;-62
2020/12/19 03:11:16;;;;;;;8.20;6.07;;;9.20;99.90;;;;;;5052429;28;20041;-62
2020/12/19 03:13:43;;;;;;;9.88;6.68;;;9.20;99.90;;;;;;5053654;28;20053;-62
2020/12/19 03:16:11;;;;;;;8.60;6.15;;;9.30;99.90;;;;;;5057474;28;20049;-62
2020/12/19 03:18:37;;;;;;;8.77;7.07;;;9.20;99.90;;;;;;5056478;28;20049;-62
2020/12/19 03:21:04;;;;;;;8.30;6.53;;;9.20;99.90;;;;;;5056251;28;20087;-62
2020/12/19 03:23:31;;;;;;;8.02;6.07;;;9.20;99.90;;;;;;5057312;28;20060;-62
2020/12/19 03:25:57;;;;;;;7.90;5.90;;;9.20;99.90;;;;;;5056795;28;20198;-62
2020/12/19 03:28:24;;;;;;;9.20;5.72;;;9.20;99.90;;;;;;5056726;28;20053;-62
2020/12/19 03:30:50;;;;;;;8.55;6.07;;;9.10;99.90;;;;;;5057308;28;20152;-61
2020/12/19 03:33:18;;;;;;;8.82;5.97;;;9.10;99.90;;;;;;5056454;28;20117;-62
2020/12/19 03:35:44;;;;;;;7.55;5.75;;;9.10;99.90;;;;;;5056390;28;20061;-62
2020/12/19 03:38:11;;;;;;;7.97;6.13;;;9.10;99.90;;;;;;5056379;28;20044;-62
2020/12/19 03:40:38;;;;;;;8.77;6.80;;;9.10;99.90;;;;;;5056211;28;20457;-61
2020/12/19 03:43:04;;;;;;;8.80;6.28;;;9.10;99.90;;;;;;5056293;28;20045;-62
2020/12/19 03:45:31;;;;;;;7.57;5.32;;;9.00;99.90;;;;;;5056732;28;20439;-62
2020/12/19 03:47:57;;;;;;;7.72;5.30;;;9.10;99.90;;;;;;5062794;28;20091;-61
2020/12/19 03:50:25;;;;;;;6.97;5.53;;;9.10;99.90;;;;;;5075706;28;20076;-62
2020/12/19 03:52:52;;;;;;;7.45;5.25;;;9.20;99.90;;;;;;5075759;28;20055;-61
2020/12/19 03:55:18;;;;;;;7.75;5.45;;;9.10;99.90;;;;;;5062095;28;20060;-61
2020/12/19 03:57:47;;;;;;;9.15;5.70;;;9.20;99.90;;;;;;5056319;28;20081;-61
2020/12/19 04:00:14;;;;;;;8.52;5.63;;;9.20;99.90;;;;;;5055645;28;20410;-62
2020/12/19 04:02:41;;;;;;;7.93;6.07;;;9.20;99.90;;;;;;5055845;28;20102;-62
2020/12/19 04:05:10;;;;;;;8.82;6.03;;;9.10;99.90;;;;;;5055835;28;20072;-62
2020/12/19 04:07:38;;;;;;;8.80;5.73;;;9.10;99.90;;;;;;5056329;28;20404;-62
2020/12/19 04:10:06;;;;;;;6.95;5.35;;;9.10;99.90;;;;;;5055670;28;20521;-62
2020/12/19 04:12:32;;;;;;;8.38;6.05;;;9.10;99.90;;;;;;5055550;28;20132;-62
2020/12/19 04:14:59;;;;;;;7.30;5.82;;;9.00;99.90;;;;;;5055411;28;20056;-62
2020/12/19 04:17:25;;;;;;;9.02;5.55;;;9.00;99.90;;;;;;5055717;28;20052;-61
2020/12/19 04:19:52;;;;;;;8.05;5.43;;;9.00;99.90;;;;;;5055757;28;20071;-62
2020/12/19 04:22:19;;;;;;;8.00;6.18;;;9.00;99.90;;;;;;5056194;28;20045;-61
2020/12/19 04:24:46;;;;;;;7.53;6.10;;;9.00;99.90;;;;;;5055250;28;20456;-61
2020/12/19 04:27:13;;;;;;;8.40;6.45;;;8.90;99.90;;;;;;5055142;28;20092;-61
2020/12/19 04:29:39;;;;;;;8.48;5.97;;;8.90;99.90;;;;;;5055279;28;20410;-62
2020/12/19 04:32:06;;;;;;;7.10;5.25;;;8.90;99.90;;;;;;5055082;28;20057;-62
2020/12/19 04:34:32;;;;;;;7.65;5.53;;;8.90;99.90;;;;;;5055241;28;20086;-62
2020/12/19 04:36:59;;;;;;;8.13;5.32;;;8.90;99.90;;;;;;5073226;28;20563;-61
2020/12/19 04:39:25;;;;;;;8.75;6.22;;;8.90;99.90;;;;;;5075063;28;20402;-61
2020/12/19 04:41:53;;;;;;;9.30;6.18;;;8.90;99.90;;;;;;5075223;28;20087;-61
2020/12/19 04:44:20;;;;;;;8.63;6.72;;;8.80;99.90;;;;;;5074764;28;20048;-60
2020/12/19 04:46:48;;;;;;;8.63;7.05;;;8.80;99.90;;;;;;5075308;28;20056;-61
2020/12/19 04:49:16;;;;;;;9.05;7.15;;;8.90;99.90;;;;;;5074944;28;20417;-61
2020/12/19 04:51:42;;;;;;;9.82;7.30;;;8.80;99.90;;;;;;5057660;28;20055;-62
2020/12/19 04:54:09;;;;;;;7.70;6.55;;;8.80;99.90;;;;;;5054863;28;20081;-62
2020/12/19 04:56:36;;;;;;;10.20;7.30;;;8.80;99.90;;;;;;5054864;28;20091;-62
2020/12/19 04:59:04;;;;;;;9.82;7.28;;;8.80;99.90;;;;;;5054582;28;20421;-62
2020/12/19 05:01:31;;;;;;;10.23;7.00;;;8.80;99.90;;;;;;5054681;28;20128;-61
2020/12/19 05:03:59;;;;;;;7.93;6.68;;;8.90;99.90;;;;;;5054414;28;20049;-62
2020/12/19 05:06:27;;;;;;;10.40;7.90;;;8.80;99.90;;;;;;5054816;28;20060;-62
2020/12/19 05:08:56;;;;;;;10.75;7.60;;;8.80;99.90;;;;;;5054338;28;20106;-62
2020/12/19 05:11:24;;;;;;;9.95;7.47;;;8.80;99.90;;;;;;5054317;28;20053;-62
2020/12/19 05:13:51;;;;;;;9.85;8.05;;;8.70;99.90;;;;;;5054486;28;20465;-62
2020/12/19 05:16:19;;;;;;;10.55;8.93;;;8.70;99.90;;;;;;5054534;28;20053;-62
2020/12/19 05:18:47;;;;;;;11.75;8.80;;;8.60;99.90;;;;;;5054692;28;20094;-62
2020/12/19 05:21:15;;;;;;;11.82;8.70;;;8.50;99.90;;;;;;5054827;28;20079;-62
2020/12/19 05:23:43;;;;;;;11.13;8.25;;;8.50;99.90;;;;;;5053978;28;20060;-60
2020/12/19 05:26:12;;;;;;;11.98;9.20;;;8.40;99.90;;;;;;5054029;28;20049;-62
2020/12/19 05:28:40;;;;;;;13.30;8.98;;;8.30;99.90;;;;;;5054183;28;20087;-62
2020/12/19 05:31:08;;;;;;;14.63;9.70;;;8.20;99.90;;;;;;5055247;28;20041;-62
2020/12/19 05:33:39;;;;;;;12.02;9.38;;;8.20;99.90;;;;;;5053704;28;20063;-62
2020/12/19 05:36:17;;;;;;;13.35;9.65;;;8.10;99.90;;;;;;5053759;28;20049;-62
2020/12/19 05:38:44;;;;;;;10.90;8.10;;;8.10;99.90;;;;;;5054483;28;20060;-61
2020/12/19 05:41:11;;;;;;;9.27;7.40;;;8.20;99.90;;;;;;5053670;28;20088;-61
2020/12/19 05:43:47;;;;;;;10.13;7.72;;;8.20;99.90;;;;;;5053903;28;20045;-60
2020/12/19 05:46:27;;;;;;;10.65;7.82;;;8.30;99.90;;;;;;5053749;28;20126;-58
2020/12/19 05:48:57;;;;;;;14.02;8.35;;;8.20;99.90;;;;;;5068469;28;20048;-61
2020/12/19 05:51:26;;;;;;;9.38;7.28;;;8.30;99.90;;;;;;5073747;28;20052;-60
2020/12/19 05:53:53;;;;;;;10.18;7.43;;;8.40;99.90;;;;;;5063672;28;20048;-61
2020/12/19 05:56:25;;;;;;;9.05;6.68;;;8.40;99.90;;;;;;5053944;28;20077;-60
2020/12/19 05:58:54;;;;;;;9.50;7.40;;;8.50;99.90;;;;;;5053543;28;20052;-61
2020/12/19 06:01:24;;;;;;;9.27;7.38;;;8.50;99.90;;;;;;5054382;28;20496;-61
2020/12/19 06:03:55;;;;;;;10.57;6.72;;;8.50;99.90;;;;;;5053687;28;20134;-61
2020/12/19 06:06:24;;;;;;;9.63;7.53;;;8.60;99.90;;;;;;5053430;28;20053;-62
2020/12/19 06:08:50;;;;;;;10.73;7.13;;;8.60;99.90;;;;;;5053211;28;20053;-61
2020/12/19 06:11:22;;;;;;;11.85;7.38;;;8.60;99.90;;;;;;5053649;28;20098;-62
2020/12/19 06:13:52;;;;;;;9.55;6.93;;;8.60;99.90;;;;;;5053221;28;20060;-61
2020/12/19 06:16:21;;;;;;;9.40;6.55;;;8.60;99.90;;;;;;5053729;28;20486;-62
2020/12/19 06:19:19;;;;;;;9.43;7.70;;;8.60;99.90;;;;;;5052679;28;20048;-62
2020/12/19 06:21:50;;;;;;;12.18;8.02;;;8.60;99.90;;;;;;5053376;28;20045;-62
2020/12/19 06:24:44;;;;;;;10.95;8.32;;;8.70;99.90;;;;;;5052890;28;20049;-62
2020/12/19 06:27:31;;;;;;;11.38;7.85;;;8.60;99.90;;;;;;5053222;28;20119;-62
2020/12/19 06:29:58;;;;;;;9.90;7.95;;;8.70;99.90;;;;;;5053439;28;20140;-61
2020/12/19 06:32:28;;;;;;;9.65;8.45;;;8.70;99.90;;;;;;5053387;28;20092;-62
2020/12/19 06:35:04;;;;;;;11.80;8.48;;;8.70;99.90;;;;;;5053185;28;20455;-62
2020/12/19 06:37:32;;;;;;;10.48;8.20;;;8.80;99.90;;;;;;5053308;28;20559;-61
2020/12/19 06:40:10;;;;;;;11.25;8.23;;;8.80;99.90;;;;;;5052893;28;20515;-61
2020/12/19 06:42:37;;;;;;;11.32;8.50;;;8.70;99.90;;;;;;5052675;28;20060;-62
2020/12/19 06:45:24;;;;;;;11.57;8.68;;;8.70;99.90;;;;;;5052865;28;20147;-61
2020/12/19 06:47:52;;;;;;;11.60;9.05;;;8.70;99.90;;;;;;5058071;28;20179;-61
2020/12/19 06:50:20;;;;;;;12.88;8.82;;;8.70;99.90;;;;;;5072513;28;20052;-61
2020/12/19 06:52:54;;;;;;;12.10;8.27;;;8.70;99.90;;;;;;5072761;28;20493;-62
2020/12/19 06:55:23;;;;;;;12.75;8.38;;;8.80;99.90;;;;;;5072576;28;20469;-62
2020/12/19 06:57:51;;;;;;;12.43;9.85;;;8.80;99.90;;;;;;5072679;28;20045;-63
2020/12/19 07:00:18;;;;;;;12.02;9.07;;;8.80;99.90;;;;;;5069144;28;20045;-61
2020/12/19 07:02:50;;;;;;;12.48;8.70;;;8.80;99.90;;;;;;5052568;28;20053;-62
2020/12/19 07:05:23;;;;;;;13.10;8.50;;;8.90;99.90;;;;;;5053347;28;20063;-62
2020/12/19 07:07:50;;;;;;;12.18;7.53;;;8.90;99.90;;;;;;5052792;28;20382;-62
2020/12/19 07:10:33;;;;;;;12.48;9.57;;;9.00;99.90;;;;;;5052367;28;20402;-62
2020/12/19 07:12:59;;;;;;;15.00;9.95;;;9.10;99.90;;;;;;5055264;28;20049;-61
2020/12/19 07:15:43;;;;;;;13.57;9.45;;;9.10;99.90;;;;;;5056872;28;20053;-62
2020/12/19 07:18:25;;;;;;;10.55;7.40;;;9.10;99.90;;;;;;5052384;28;20087;-62
2020/12/19 07:21:00;;;;;;;10.38;8.77;;;9.10;99.90;;;;;;5052334;28;20049;-62
2020/12/19 07:23:27;;;;;;;10.82;8.60;;;9.20;99.90;;;;;;5052396;28;20070;-62
2020/12/19 07:25:53;;;;;;;11.85;8.68;;;9.30;99.90;;;;;;5052752;28;20485;-62
2020/12/19 07:28:20;;;;;;;11.13;8.65;;;9.30;99.90;;;;;;5052717;28;20049;-62
2020/12/19 07:30:47;;;;;;;11.90;7.95;;;9.30;99.90;;;;;;5052527;28;20052;-62
2020/12/19 07:33:14;;;;;;;11.02;8.07;;;9.40;99.90;;;;;;5051909;28;20102;-61
2020/12/19 07:35:40;;;;;;;8.63;6.38;;;9.40;99.90;;;;;;5052493;28;20059;-62
2020/12/19 07:38:08;;;;;;;10.25;7.10;;;9.50;99.90;;;;;;5052451;28;20133;-62
2020/12/19 07:40:35;;;;;;;10.05;7.50;;;9.50;99.90;;;;;;5052835;28;20074;-62
2020/12/19 07:43:02;;;;;;;9.73;7.50;;;9.50;99.90;;;;;;5064466;28;20091;-61
2020/12/19 07:45:28;;;;;;;10.93;7.47;;;9.60;99.90;;;;;;5072025;28;20532;-62
2020/12/19 07:47:58;;;;;;;9.68;6.68;;;9.70;99.90;;;;;;5072175;28;20105;-62
2020/12/19 07:50:25;;;;;;;9.77;6.70;;;9.70;99.90;;;;;;5072171;28;20055;-62
2020/12/19 07:52:59;;;;;;;9.50;7.15;;;9.70;99.90;;;;;;5072124;28;20090;-62
2020/12/19 07:55:27;;;;;;;10.00;7.70;;;9.70;99.90;;;;;;5072183;28;20052;-62
2020/12/19 07:57:54;;;;;;;9.88;6.97;;;9.80;99.90;;;;;;5071347;28;20059;-62
2020/12/19 08:00:21;;;;;;;8.43;6.10;;;9.80;99.90;;;;;;5072842;28;20049;-62
2020/12/19 08:02:48;;;;;;;10.07;6.70;;;9.80;99.90;;;;;;5075508;28;20059;-62
2020/12/19 08:05:14;;;;;;;9.60;7.18;;;9.90;99.90;;;;;;5075661;28;20048;-62
2020/12/19 08:07:41;;;;;;;9.75;6.72;;;9.90;99.90;;;;;;5075611;28;20052;-62
2020/12/19 08:10:09;;;;;;;11.18;6.43;;;10.00;99.90;;;;;;5075452;28;20060;-62
2020/12/19 08:12:37;;;;;;;10.48;5.97;;;10.10;99.90;;;;;;5075282;28;20052;-62
2020/12/19 08:15:06;;;;;;;10.88;6.50;;;10.10;99.90;;;;;;5073228;28;20049;-62
2020/12/19 08:17:37;;;;;;;9.50;7.70;;;10.10;99.90;;;;;;5055447;28;20147;-62
2020/12/19 08:20:04;;;;;;;10.10;7.18;;;10.20;99.90;;;;;;5055832;28;20052;-62
2020/12/19 08:22:32;;;;;;;8.48;6.60;;;10.20;99.90;;;;;;5055216;28;20056;-62
2020/12/19 08:24:59;;;;;;;9.20;6.60;;;10.30;99.90;;;;;;5055230;28;20053;-61
2020/12/19 08:27:33;;;;;;;10.85;7.38;;;10.60;99.90;;;;;;5055828;28;20052;-62
2020/12/19 08:30:11;;;;;;;9.73;6.45;;;11.00;99.90;;;;;;5055091;28;20053;-62
2020/12/19 08:32:41;;;;;;;7.85;5.78;;;11.50;99.90;;;;;;5055803;28;20068;-62
2020/12/19 08:35:08;;;;;;;8.40;5.72;;;10.90;99.90;;;;;;5057661;28;20418;-62
2020/12/19 08:37:35;;;;;;;8.18;6.80;;;10.60;99.90;;;;;;5066392;28;20055;-62
2020/12/19 08:40:11;;;;;;;7.57;6.28;;;11.00;99.90;;;;;;5064534;28;20106;-62
2020/12/19 08:42:39;;;;;;;8.95;5.90;;;11.40;99.90;;;;;;5075822;28;20048;-62
2020/12/19 08:45:26;;;;;;;7.57;5.35;;;12.10;99.90;;;;;;5066593;28;20106;-62
2020/12/19 08:48:02;;;;;;;8.63;5.20;;;12.60;99.90;;;;;;5069111;28;20060;-62
2020/12/19 08:50:32;;;;;;;6.72;5.30;;;13.30;99.90;;;;;;5066133;28;20151;-62
2020/12/19 08:53:07;;;;;;;7.50;5.75;;;13.70;99.90;;;;;;5064776;28;20071;-62
2020/12/19 08:55:33;;;;;;;8.07;5.60;;;14.40;99.90;;;;;;5074706;28;20539;-62
2020/12/19 08:58:00;;;;;;;7.85;5.30;;;15.40;99.90;;;;;;5056448;28;20049;-62
2020/12/19 09:00:33;;;;;;;5.70;4.65;;;15.20;99.90;;;;;;5054282;28;20076;-62
2020/12/19 09:03:04;;;;;;;5.75;4.53;;;15.20;99.90;;;;;;5054851;28;20053;-62
2020/12/19 09:05:32;;;;;;;6.25;5.03;;;15.90;99.90;;;;;;5056132;28;20147;-62
2020/12/19 09:07:59;;;;;;;7.10;5.72;;;15.60;99.90;;;;;;5073514;28;20094;-62
2020/12/19 09:10:27;;;;;;;6.90;5.28;;;15.40;99.90;;;;;;5061490;28;20465;-62
2020/12/19 09:13:22;;;;;;;6.15;4.97;;;16.00;99.90;;;;;;5070344;28;20060;-63
2020/12/19 09:15:52;;;;;;;7.07;5.30;;;16.50;99.90;;;;;;5074401;28;20470;-62
2020/12/19 09:18:20;;;;;;;;;;;17.00;99.90;;;;;;5074393;28;20052;-62
2020/12/19 09:20:50;;;;;;;5.30;4.75;;;18.00;99.90;;;;;;5070234;28;20011;-63
2020/12/19 09:23:17;;;;;;;5.80;5.20;;;17.90;99.90;;;;;;5062714;28;20131;-63
2020/12/19 09:25:44;;;;;;;6.05;5.07;;;17.30;99.90;;;;;;5072127;28;20159;-63
2020/12/19 09:28:12;;;;;;;5.63;4.55;;;18.00;99.90;;;;;;5068964;28;20053;-63
2020/12/19 09:30:40;;;;;;;6.57;4.72;;;18.50;99.50;;;;;;5073896;28;20063;-63
2020/12/19 09:33:08;;;;;;;7.15;4.72;;;17.50;99.90;;;;;;5072759;28;20405;-63
2020/12/19 09:35:37;;;;;;;5.18;4.35;;;18.60;98.80;;;;;;5066329;28;20049;-63
2020/12/19 09:38:04;;;;;;;6.80;4.75;;;17.80;99.70;;;;;;5065967;28;20056;-63
2020/12/19 09:40:30;;;;;;;5.22;4.65;;;18.00;99.10;;;;;;5073688;28;20058;-63
2020/12/19 09:42:57;;;;;;;5.60;5.00;;;18.90;98.30;;;;;;5057491;28;20049;-63
2020/12/19 09:45:24;;;;;;;5.22;4.57;;;19.40;95.40;;;;;;5058468;28;20094;-63
2020/12/19 09:47:54;;;;;;;6.65;5.03;;;19.00;95.10;;;;;;5073622;28;20045;-63
2020/12/19 09:50:22;;;;;;;5.22;4.18;;;19.60;94.00;;;;;;5071363;28;20090;-63
2020/12/19 09:52:49;;;;;;;6.25;4.22;;;19.80;92.30;;;;;;5058516;28;20080;-63
2020/12/19 09:55:18;;;;;;;6.57;4.38;;;18.20;94.70;;;;;;5071056;28;20142;-63
2020/12/19 09:57:45;;;;;;;6.43;4.18;;;17.60;96.70;;;;;;5073098;28;20048;-64
2020/12/19 10:00:13;;;;;;;5.57;4.22;;;16.30;99.60;;;;;;5062456;28;20056;-63
2020/12/19 10:02:41;;;;;;;6.43;4.25;;;15.50;99.90;;;;;;5057014;28;20052;-63
2020/12/19 10:05:08;;;;;;;7.18;5.03;;;14.80;99.90;;;;;;5056830;28;20049;-63
2020/12/19 10:07:36;;;;;;;7.25;4.75;;;14.60;99.90;;;;;;5054322;28;20048;-63
2020/12/19 10:10:04;;;;;;;6.47;4.00;;;14.20;99.90;;;;;;5053375;28;20053;-63
2020/12/19 10:12:30;;;;;;;6.18;4.57;;;14.10;99.90;;;;;;5065315;28;20052;-63
2020/12/19 10:14:57;;;;;;;4.90;4.05;;;13.70;99.90;;;;;;5073258;28;20094;-63
2020/12/19 10:17:24;;;;;;;6.85;4.68;;;13.60;99.90;;;;;;5073197;28;20059;-63
2020/12/19 10:19:50;;;;;;;6.00;5.10;;;13.30;99.90;;;;;;5072953;28;20102;-62
2020/12/19 10:22:17;;;;;;;5.90;5.40;;;14.30;99.90;;;;;;5055309;28;20455;-62
2020/12/19 10:24:45;;;;;;;6.82;5.30;;;16.10;99.90;;;;;;5057281;28;20051;-63
2020/12/19 10:27:11;;;;;;;6.47;5.78;;;17.30;99.90;;;;;;5072720;28;20069;-63
2020/12/19 10:29:38;;;;;;;6.65;6.05;;;17.80;99.90;;;;;;5070294;28;20516;-63
2020/12/19 10:32:08;;;;;;;8.30;7.53;;;19.20;97.50;;;;;;5052882;28;20045;-62
2020/12/19 10:34:35;;;;;;;15.88;14.93;;;19.90;93.90;;;;;;5052031;28;20107;-63
2020/12/19 10:37:01;;;;;;;8.18;7.47;;;20.10;91.70;;;;;;5053417;28;20056;-63
2020/12/19 10:39:28;;;;;;;8.05;7.35;;;20.90;89.10;;;;;;5068311;28;20083;-63
2020/12/19 10:41:55;;;;;;;7.28;6.78;;;21.10;85.60;;;;;;5063704;28;20129;-65
2020/12/19 10:44:22;;;;;;;6.97;6.38;;;20.40;84.30;;;;;;5063473;28;20041;-65
2020/12/19 10:46:49;;;;;;;7.18;6.60;;;19.30;89.90;;;;;;5054602;28;20110;-65
2020/12/19 10:49:15;;;;;;;10.75;6.85;;;17.90;92.50;;;;;;5067486;28;20068;-65
2020/12/19 10:51:42;;;;;;;7.72;6.95;;;18.10;93.90;;;;;;5065237;28;20471;-65
2020/12/19 10:54:09;;;;;;;7.50;6.90;;;17.90;94.10;;;;;;5069484;28;20472;-65
2020/12/19 10:56:35;;;;;;;8.05;7.45;;;17.40;95.20;;;;;;5071197;28;20049;-64
2020/12/19 10:59:03;;;;;;;8.60;8.00;;;17.80;94.80;;;;;;5055956;28;20045;-65
2020/12/19 11:01:29;;;;;;;9.57;8.85;;;18.00;94.80;;;;;;5055313;28;20377;-65
2020/12/19 11:03:56;;;;;;;13.88;13.02;;;18.40;93.70;;;;;;5069217;28;20055;-65
2020/12/19 11:06:24;;;;;;;16.63;15.73;;;18.50;93.20;;;;;;5069580;28;20045;-65
2020/12/19 11:08:51;;;;;;;9.95;9.35;;;18.40;92.40;;;;;;5071878;28;20074;-65
2020/12/19 11:11:18;;;;;;;10.32;9.73;;;18.70;93.10;;;;;;5062164;28;20097;-65
2020/12/19 11:13:48;;;;;;;12.05;11.35;;;19.10;91.60;;;;;;5066505;28;20041;-65
2020/12/19 11:16:25;;;;;;;16.05;15.20;;;19.40;91.30;;;;;;5051930;28;20139;-65
2020/12/19 11:18:51;;;;;;;11.10;10.50;;;20.20;87.70;;;;;;5052746;28;20045;-65
2020/12/19 11:21:18;;;;;;;13.05;12.25;;;19.40;90.80;;;;;;5071651;28;20076;-65
2020/12/19 11:23:45;;;;;;;16.13;15.32;;;19.00;90.40;;;;;;5071210;28;20044;-65
2020/12/19 11:26:12;;;;;;;22.52;21.55;;;19.60;90.30;;;;;;5061940;28;20488;-65
2020/12/19 11:28:39;;;;;;;16.25;15.38;;;20.20;87.00;;;;;;5063606;28;20052;-65
2020/12/19 11:31:06;;;;;;;20.48;19.40;;;20.50;86.10;;;;;;5052803;28;20052;-65
2020/12/19 11:33:34;;;;;;;49.00;46.80;;;20.10;85.00;;;;;;5023260;28;897596;-65
2020/12/19 11:36:03;;;;;;;1999.90;999.90;;;19.30;87.80;;;;;;5055208;28;20444;-65
2020/12/19 11:38:30;;;;;;;1999.90;999.90;;;19.50;88.40;;;;;;5060151;28;20131;-65
2020/12/19 11:40:56;;;;;;;1999.90;999.90;;;19.50;88.00;;;;;;5075891;28;20052;-65
2020/12/19 11:43:23;;;;;;;18.35;17.15;;;18.40;90.30;;;;;;5074540;28;20048;-65
2020/12/19 11:45:50;;;;;;;34.70;33.22;;;18.50;90.70;;;;;;5076141;28;20052;-65
2020/12/19 11:48:17;;;;;;;23.55;22.42;;;18.60;90.20;;;;;;5069625;28;20056;-66
2020/12/19 11:50:44;;;;;;;42.03;40.15;;;18.80;90.40;;;;;;5060164;28;20048;-65
2020/12/19 11:53:10;;;;;;;26.23;24.95;;;18.60;90.10;;;;;;5059072;28;20052;-65
2020/12/19 11:55:37;;;;;;;21.42;20.42;;;18.50;90.40;;;;;;5055877;28;20060;-65
2020/12/19 11:58:04;;;;;;;13.82;13.02;;;17.60;92.20;;;;;;5055809;28;20478;-65
2020/12/19 12:00:30;;;;;;;11.35;10.75;;;17.60;92.70;;;;;;5055883;28;20466;-64
2020/12/19 12:02:57;;;;;;;15.45;14.65;;;17.70;92.60;;;;;;5056180;28;20111;-64
2020/12/19 12:05:23;;;;;;;11.60;10.90;;;17.90;92.10;;;;;;5055493;28;20052;-65
2020/12/19 12:07:51;;;;;;;11.63;10.93;;;18.50;91.30;;;;;;5055459;28;20052;-64
2020/12/19 12:10:17;;;;;;;13.55;12.82;;;18.50;91.60;;;;;;5055262;28;20071;-64
2020/12/19 12:12:44;;;;;;;8.93;8.32;;;18.70;90.90;;;;;;5056342;28;20135;-64
2020/12/19 12:15:11;;;;;;;9.48;8.77;;;18.10;91.50;;;;;;5055526;28;20532;-64
2020/12/19 12:17:37;;;;;;;7.68;7.05;;;17.30;92.80;;;;;;5055535;28;20502;-64
2020/12/19 12:20:04;;;;;;;8.88;8.20;;;16.80;94.70;;;;;;5055382;28;20072;-65
2020/12/19 12:22:30;;;;;;;7.10;6.50;;;17.60;93.70;;;;;;5055079;28;20498;-64
2020/12/19 12:24:58;;;;;;;5.72;5.22;;;17.00;94.20;;;;;;5055291;28;20140;-64
2020/12/19 12:27:24;;;;;;;4.38;3.85;;;16.70;94.80;;;;;;5056320;28;20049;-64
2020/12/19 12:29:51;;;;;;;3.90;3.25;;;16.50;95.80;;;;;;5055407;28;20506;-64
2020/12/19 12:32:18;;;;;;;3.40;3.10;;;16.10;96.60;;;;;;5054874;28;20432;-64
2020/12/19 12:34:44;;;;;;;4.95;3.25;;;15.80;98.20;;;;;;5055182;28;20045;-65
2020/12/19 12:37:13;;;;;;;4.43;3.38;;;15.80;98.40;;;;;;5055552;28;20045;-64
2020/12/19 12:39:39;;;;;;;3.80;3.40;;;15.50;99.10;;;;;;5055260;28;20131;-64
2020/12/19 12:42:07;;;;;;;4.70;2.67;;;15.50;99.60;;;;;;5055136;28;20045;-65
2020/12/19 12:44:33;;;;;;;3.30;2.50;;;15.10;99.90;;;;;;5055064;28;20169;-65
2020/12/19 12:47:01;;;;;;;7.07;2.95;;;14.90;99.90;;;;;;5056111;28;20091;-66
2020/12/19 12:49:28;;;;;;;4.15;2.72;;;14.30;99.90;;;;;;5074393;28;20540;-65
2020/12/19 12:51:54;;;;;;;4.18;2.95;;;14.20;99.90;;;;;;5074590;28;20447;-65
2020/12/19 12:54:21;;;;;;;3.70;2.78;;;14.20;99.90;;;;;;5055027;28;20041;-64
2020/12/19 12:56:47;;;;;;;3.75;2.70;;;14.10;99.90;;;;;;5054655;28;20486;-64